Covington, Virginia
Current Conditions -  °F | °C
As of 11:35 AM on Tuesday 21 Oct 2014 (Local Time) from KHSP Reporting Station
Overcast Overcast  
Wind Chill: 50°   Ceiling: 700
Heat Index: 50°   Visibility: 10mi
Dew Point: 46°   Wind: 8mph
Humidity: 86%   Direction: 260°W
Pressure: 29.9"   Gusts: NA
Location:  37.79°N, 79.99°W
Report Text: KHSP 211535Z AUTO 26007KT 10SM BKN007 OVC012 10/08 A2990 RMK AO2 T01010079
Loading
Personal Weather Stations






























Interactive Weather Map
Tropical Storm Tracking
New forecast layout! Learn more

10-Day Weather Forecast

Advertisements
Track Severe Weather on mobile